AirNav   ATP
 
 745 users online  

0R1 Atmore Municipal Airport
Atmore, Alabama, USA

GOING TO ATMORE?


FAA INFORMATION EFFECTIVE 24 MAY 2018

Location

FAA Identifier: 0R1
Lat/Long: 31-00-58.1000N / 087-26-48.3000W
31-00.968333N / 087-26.805000W
31.0161389 / -87.4467500
(estimated)
Elevation: 286 ft. / 87.2 m (surveyed)
Variation: 03W (2020)
From city: 3 miles E of ATMORE, AL
Time zone: UTC -5 (UTC -6 during Standard Time)
Zip code: 36502

Airport Operations

Airport use: Open to the public
Activation date: 10/1961
Control tower: no
ARTCC: JACKSONVILLE CENTER
FSS: ANNISTON FLIGHT SERVICE STATION
NOTAMs facility: ANB (NOTAM-D service available)
Attendance: MON-FRI 0700-1700
WEEKENDS ON CALL.
Wind indicator: lighted
Segmented circle: yes
Lights: ACTVT MIRL RY 18/36 AND PAPI RYS 18 & 36 - CTAF.
Beacon: white-green (lighted land airport)
Operates sunset to sunrise.

Airport Communications

CTAF/UNICOM: 122.8
PENSACOLA APPROACH: 127.35
PENSACOLA DEPARTURE: 127.35
WX AWOS-3PT at 12J (20 nm E): 119.325 (251-809-2987)

Nearby radio navigation aids

VOR radial/distance  VOR name  Freq  Var
MVCr186/27.0MONROEVILLE VORTAC116.8004E
NUNr349/(33.1)SAUFLEY VOR108.8001E
BFMr048/39.6BROOKLEY VORTAC112.8004E

 
NDB name  Hdg/Dist  Freq  Var  ID
PICKENS340/37.432602WPKZ .--. -.- --..

Airport Services

Fuel available: 100LL
Parking: tiedowns
Airframe service: MAJOR
Powerplant service: MAJOR
Bottled oxygen: NONE
Bulk oxygen: NONE

Runway Information

Runway 18/36

Dimensions: 5001 x 80 ft. / 1524 x 24 m
Surface: asphalt, in good condition
Weight bearing capacity: 
Single wheel: 16.0
Runway edge lights: medium intensity
Gradient: RY 18/36 SLOPE 0.11% UP NORTH.
RUNWAY 18  RUNWAY 36
Latitude: 31-01.381432N31-00.556477N
Longitude: 087-26.806668W087-26.803960W
Elevation: 283.2 ft.279.9 ft.
Gradient: 0.1%0.1%
Traffic pattern: leftleft
Runway heading: 183 magnetic, 180 true003 magnetic, 360 true
Markings: nonprecision, in good conditionnonprecision, in good condition
Visual slope indicator: 2-light PAPI on left (3.00 degrees glide path)2-light PAPI on left (3.00 degrees glide path)
Touchdown point: yes, no lightsyes, no lights
Obstructions: 35 ft. rr, 906 ft. from runway, 20:1 slope to clear
APCH RATIO 33:1 TO DSPLCD THLD.
50 ft. pline, 1424 ft. from runway, 24:1 slope to clear
APCH RATIO 32:1 TO DSPLCD THLD.

Airport Ownership and Management from official FAA records

Ownership: Publicly-owned
Owner: TOWN OF ATMORE
PO DRAWER 1297
ATMORE, AL 36504
Phone 251-368-2253
Manager: FREDDIE MCCALL
15 BEACON LN
ATMORE, AL 36502
Phone 251-368-2004
ALSO 251-655-0971

Airport Operational Statistics

Aircraft based on the field: 14
Single engine airplanes: 14
    
Aircraft operations: avg 74/week *
78% transient general aviation
22% local general aviation
* for 12-month period ending 01 April 2017

Instrument Procedures

NOTE: All procedures below are presented as PDF files. If you need a reader for these files, you should download the free Adobe Reader.

NOT FOR NAVIGATION. Please procure official charts for flight.
FAA instrument procedures published for use from 24 May 2018 at 0901Z to 21 June 2018 at 0900Z.

 
IAPs - Instrument Approach Procedures
RNAV (GPS) RWY 18   download (173KB)
RNAV (GPS) RWY 36   download (180KB)
NOTE: Special Take-Off Minimums/Departure Procedures apply   download (317KB)

Other nearby airports with instrument procedures:

12J - Brewton Municipal Airport (20 nm E)
1R8 - Bay Minette Municipal Airport (21 nm SW)
KMVC - Monroe County Aeroplex Airport (27 nm N)
KNSE - Whiting Field Naval Air Station North (28 nm SE)
KNDZ - Whiting Field Naval Air Station South (29 nm SE)
 
Loc | Ops | Rwys | IFR | FBO | Links
Com | Nav | Svcs | Stats | Notes

Continental Motors
AirBoss

 
Area around 0R1 (Atmore Municipal Airport)
 
Road maps at: MapQuest Bing Google
 
Aerial photo
No photo
 
Sectional chart

 
Airport distance calculator
Flying to Atmore Municipal Airport? Find the distance to fly.

From to 0R1

Sunrise and sunset
Times for 19-Jun-2018
 Local
(UTC-5)
 Zulu
(UTC)
Morning civil twilight05:1910:19
Sunrise05:4710:47
Sunset19:5500:55
Evening civil twilight20:2301:23

Current date and time
Zulu (UTC)  19-Jun-2018 11:32:19
Local (UTC-5)  19-Jun-2018 06:32:19
 
METAR
KNSE 
29nm SE 
191056Z 01005KT 9SM FEW150 BKN250 23/22 A3006 RMK AO2 SLP163 T02330222 $
KNDZ 
29nm SE 
191056Z AUTO 01005KT 10SM CLR 24/23 A3006 RMK AO2 SLP164 T02390228 $
KGZH 
31nm NE 
191053Z AUTO 00000KT 9SM CLR 22/20 A3009 RMK AO2 SLP184 T02170200 $
2R4 
33nm SE 
SuperAWOS
191055Z AUTO 00000KT 23/23 A3004
KPNS 
35nm SE 
191053Z 01004KT 10SM CLR 25/22 A3005 RMK AO2 SLP178 T02500222
KBFM 
40nm SW 
191053Z 35003KT 10SM CLR 26/25 A3008 RMK AO2 SLP184 T02560250
KCQF 
40nm SW 
191115Z AUTO 00000KT 7SM CLR 22/22 A3007 RMK AO2
KNPA 
41nm S 
191056Z 00000KT 6SM BR SCT150 BKN250 24/22 A3005 RMK AO2 SLP177 T02390222
KJKA 
45nm S 
191115Z AUTO 02007KT 7SM CLR 23/23 A3006 RMK AO2 T02330233
KMOB 
46nm SW 
191056Z 00000KT 7SM FEW100 BKN200 24/23 A3008 RMK AO2 SLP181 T02390228
TAF
KNSE 
29nm SE 
1907/2007 23006KT 6000 BR FEW045 SCT150 BKN250 QNH3002INS FM191200 VRB05KT 9999 SCT035 SCT130 OVC250 QNH3003INS FM191800 23009KT 9999 VCTS SCT050CB BKN130 OVC200 QNH2994INS TEMPO 1919/2001 VRB25G30KT 4800 TSRA BR BKN020CB BKN050 FM200200 VRB03KT 9999 SCT030 BKN080 BKN250 QNH2996INS AUTOMATED SENSOR METWATCH 1907 TIL 1911 T22/1912Z T32/1919Z AMD 0712 FN00191
KPNS 
35nm SE 
190520Z 1906/2006 VRB03KT P6SM BKN250 FM191400 36005KT P6SM SCT250
NOTAMs
Click for the latest NOTAMs
NOTAMs are issued by the DoD/FAA and will open in a separate window not controlled by AirNav.

 

 
 

FBO, Fuel Providers, and Aircraft Ground Support

  
 Business Name 
 
 Contact 
 
 Services / Description 
 
Fuel Prices
 
Comments
  
Aviation Specialists LLC 251-368-2004
[email]
Airport management, Aviation fuel, Aircraft ground handling, Oxygen service, Aircraft parking (ramp or tiedown), Hangars, Hangar leasing / sales, ...

More info about Aviation Specialists LLC
Shell
100LL
FS $4.90 
GUARANTEED
 
   1 read write
FS=Full service
Update Fuel Prices
 

Would you like to see your business listed on this page?

 If your business provides an interesting product or service to pilots, flight crews, aircraft, or users of the Atmore Municipal Airport, you should consider listing it here.  To start the listing process, click on the button below
 
Add a business
 

Other Pages about Atmore Municipal Airport

Update a link
 
Copyright © AirNav, LLC. All rights reserved. Privacy Policy  Contact